sensor_id;sensor_type;location;lat;lon;timestamp;temperature;humidity
16315;DHT22;8266;52.150;4.768;2023-11-21T00:02:26;10.60;99.90
16315;DHT22;8266;52.150;4.768;2023-11-21T00:04:53;10.60;99.90
16315;DHT22;8266;52.150;4.768;2023-11-21T00:07:21;10.60;99.90
16315;DHT22;8266;52.150;4.768;2023-11-21T00:09:48;10.60;99.90
16315;DHT22;8266;52.150;4.768;2023-11-21T00:12:15;10.60;99.90
16315;DHT22;8266;52.150;4.768;2023-11-21T00:14:42;10.60;99.90
16315;DHT22;8266;52.150;4.768;2023-11-21T00:17:10;10.70;99.90
16315;DHT22;8266;52.150;4.768;2023-11-21T00:19:38;10.70;99.90
16315;DHT22;8266;52.150;4.768;2023-11-21T00:22:05;10.70;99.90
16315;DHT22;8266;52.150;4.768;2023-11-21T00:24:32;10.70;99.90
16315;DHT22;8266;52.150;4.768;2023-11-21T00:27:00;10.70;99.90
16315;DHT22;8266;52.150;4.768;2023-11-21T00:29:26;10.70;99.90
16315;DHT22;8266;52.150;4.768;2023-11-21T00:31:54;10.80;99.90
16315;DHT22;8266;52.150;4.768;2023-11-21T00:34:22;10.80;99.90
16315;DHT22;8266;52.150;4.768;2023-11-21T00:36:49;10.90;99.90
16315;DHT22;8266;52.150;4.768;2023-11-21T00:39:16;10.90;99.90
16315;DHT22;8266;52.150;4.768;2023-11-21T00:41:44;10.90;99.90
16315;DHT22;8266;52.150;4.768;2023-11-21T00:44:11;11.00;99.90
16315;DHT22;8266;52.150;4.768;2023-11-21T00:46:38;11.00;99.90
16315;DHT22;8266;52.150;4.768;2023-11-21T00:49:05;11.00;99.90
16315;DHT22;8266;52.150;4.768;2023-11-21T00:51:34;11.10;99.90
16315;DHT22;8266;52.150;4.768;2023-11-21T00:54:04;11.10;99.90
16315;DHT22;8266;52.150;4.768;2023-11-21T00:56:32;11.10;99.90
16315;DHT22;8266;52.150;4.768;2023-11-21T00:58:59;11.10;99.90
16315;DHT22;8266;52.150;4.768;2023-11-21T01:01:26;11.20;99.90
16315;DHT22;8266;52.150;4.768;2023-11-21T01:03:53;11.20;99.90
16315;DHT22;8266;52.150;4.768;2023-11-21T01:06:20;11.20;99.90
16315;DHT22;8266;52.150;4.768;2023-11-21T01:08:49;11.20;99.90
16315;DHT22;8266;52.150;4.768;2023-11-21T01:11:16;11.30;99.90
16315;DHT22;8266;52.150;4.768;2023-11-21T01:13:43;11.30;99.90
16315;DHT22;8266;52.150;4.768;2023-11-21T01:16:11;11.30;99.90
16315;DHT22;8266;52.150;4.768;2023-11-21T01:18:38;11.30;99.90
16315;DHT22;8266;52.150;4.768;2023-11-21T01:21:06;11.40;99.90
16315;DHT22;8266;52.150;4.768;2023-11-21T01:23:33;11.40;99.90
16315;DHT22;8266;52.150;4.768;2023-11-21T01:26:02;11.40;99.90
16315;DHT22;8266;52.150;4.768;2023-11-21T01:28:30;11.40;99.90
16315;DHT22;8266;52.150;4.768;2023-11-21T01:30:57;11.40;99.90
16315;DHT22;8266;52.150;4.768;2023-11-21T01:33:24;11.40;99.90
16315;DHT22;8266;52.150;4.768;2023-11-21T01:35:51;11.40;99.90
16315;DHT22;8266;52.150;4.768;2023-11-21T01:38:20;11.40;99.90
16315;DHT22;8266;52.150;4.768;2023-11-21T01:40:47;11.50;99.90
16315;DHT22;8266;52.150;4.768;2023-11-21T01:43:16;11.50;99.90
16315;DHT22;8266;52.150;4.768;2023-11-21T01:45:43;11.50;99.90
16315;DHT22;8266;52.150;4.768;2023-11-21T01:48:11;11.50;99.90
16315;DHT22;8266;52.150;4.768;2023-11-21T01:50:39;11.50;99.90
16315;DHT22;8266;52.150;4.768;2023-11-21T01:53:06;11.50;99.90
16315;DHT22;8266;52.150;4.768;2023-11-21T01:55:34;11.50;99.90
16315;DHT22;8266;52.150;4.768;2023-11-21T01:58:02;11.50;99.90
16315;DHT22;8266;52.150;4.768;2023-11-21T02:00:30;11.50;99.90
16315;DHT22;8266;52.150;4.768;2023-11-21T02:02:59;11.50;99.90
16315;DHT22;8266;52.150;4.768;2023-11-21T02:05:26;11.60;99.90
16315;DHT22;8266;52.150;4.768;2023-11-21T02:07:53;11.60;99.90
16315;DHT22;8266;52.150;4.768;2023-11-21T02:10:21;11.60;99.90
16315;DHT22;8266;52.150;4.768;2023-11-21T02:12:49;11.60;99.90
16315;DHT22;8266;52.150;4.768;2023-11-21T02:15:17;11.60;99.90
16315;DHT22;8266;52.150;4.768;2023-11-21T02:17:49;11.60;99.90
16315;DHT22;8266;52.150;4.768;2023-11-21T02:20:17;11.60;99.90
16315;DHT22;8266;52.150;4.768;2023-11-21T02:22:50;11.70;99.90
16315;DHT22;8266;52.150;4.768;2023-11-21T02:25:18;11.70;99.90
16315;DHT22;8266;52.150;4.768;2023-11-21T02:27:45;11.70;99.90
16315;DHT22;8266;52.150;4.768;2023-11-21T02:30:14;11.70;99.90
16315;DHT22;8266;52.150;4.768;2023-11-21T02:32:42;11.70;99.90
16315;DHT22;8266;52.150;4.768;2023-11-21T02:35:09;11.80;99.90
16315;DHT22;8266;52.150;4.768;2023-11-21T02:37:37;11.80;99.90
16315;DHT22;8266;52.150;4.768;2023-11-21T02:40:09;11.80;99.90
16315;DHT22;8266;52.150;4.768;2023-11-21T02:42:38;11.80;99.90
16315;DHT22;8266;52.150;4.768;2023-11-21T02:45:06;11.80;99.90
16315;DHT22;8266;52.150;4.768;2023-11-21T02:47:34;11.80;99.90
16315;DHT22;8266;52.150;4.768;2023-11-21T02:50:01;11.80;99.90
16315;DHT22;8266;52.150;4.768;2023-11-21T02:52:28;11.80;99.90
16315;DHT22;8266;52.150;4.768;2023-11-21T02:54:55;11.90;99.90
16315;DHT22;8266;52.150;4.768;2023-11-21T02:57:23;11.80;99.90
16315;DHT22;8266;52.150;4.768;2023-11-21T02:59:50;11.90;99.90
16315;DHT22;8266;52.150;4.768;2023-11-21T03:02:17;11.90;99.90
16315;DHT22;8266;52.150;4.768;2023-11-21T03:04:44;11.90;99.90
16315;DHT22;8266;52.150;4.768;2023-11-21T03:07:13;11.90;99.90
16315;DHT22;8266;52.150;4.768;2023-11-21T03:09:40;11.90;99.90
16315;DHT22;8266;52.150;4.768;2023-11-21T03:12:09;11.90;99.90
16315;DHT22;8266;52.150;4.768;2023-11-21T03:14:39;11.90;99.90
16315;DHT22;8266;52.150;4.768;2023-11-21T03:17:06;11.90;99.90
16315;DHT22;8266;52.150;4.768;2023-11-21T03:19:33;11.90;99.90
16315;DHT22;8266;52.150;4.768;2023-11-21T03:22:00;11.90;99.90
16315;DHT22;8266;52.150;4.768;2023-11-21T03:24:27;11.90;99.90
16315;DHT22;8266;52.150;4.768;2023-11-21T03:26:54;11.90;99.90
16315;DHT22;8266;52.150;4.768;2023-11-21T03:29:21;11.90;99.90
16315;DHT22;8266;52.150;4.768;2023-11-21T03:31:50;11.90;99.90
16315;DHT22;8266;52.150;4.768;2023-11-21T03:34:22;11.90;99.90
16315;DHT22;8266;52.150;4.768;2023-11-21T03:36:49;11.90;99.90
16315;DHT22;8266;52.150;4.768;2023-11-21T03:39:16;11.90;99.90
16315;DHT22;8266;52.150;4.768;2023-11-21T03:41:43;11.90;99.90
16315;DHT22;8266;52.150;4.768;2023-11-21T03:44:10;11.90;99.90
16315;DHT22;8266;52.150;4.768;2023-11-21T03:46:37;11.90;99.90
16315;DHT22;8266;52.150;4.768;2023-11-21T03:49:06;11.90;99.90
16315;DHT22;8266;52.150;4.768;2023-11-21T03:51:33;12.00;99.90
16315;DHT22;8266;52.150;4.768;2023-11-21T03:54:00;12.00;99.90
16315;DHT22;8266;52.150;4.768;2023-11-21T03:56:27;12.00;99.90
16315;DHT22;8266;52.150;4.768;2023-11-21T03:58:55;11.90;99.90
16315;DHT22;8266;52.150;4.768;2023-11-21T04:01:23;12.00;99.90
16315;DHT22;8266;52.150;4.768;2023-11-21T04:03:51;12.00;99.90
16315;DHT22;8266;52.150;4.768;2023-11-21T04:06:19;12.00;99.90
16315;DHT22;8266;52.150;4.768;2023-11-21T04:08:46;12.00;99.90
16315;DHT22;8266;52.150;4.768;2023-11-21T04:11:13;12.00;99.90
16315;DHT22;8266;52.150;4.768;2023-11-21T04:13:41;12.00;99.90
16315;DHT22;8266;52.150;4.768;2023-11-21T04:16:09;12.00;99.90
16315;DHT22;8266;52.150;4.768;2023-11-21T04:18:36;12.00;99.90
16315;DHT22;8266;52.150;4.768;2023-11-21T04:21:04;12.10;99.90
16315;DHT22;8266;52.150;4.768;2023-11-21T04:23:34;12.10;99.90
16315;DHT22;8266;52.150;4.768;2023-11-21T04:26:02;12.10;99.90
16315;DHT22;8266;52.150;4.768;2023-11-21T04:28:29;12.10;99.90
16315;DHT22;8266;52.150;4.768;2023-11-21T04:30:56;12.10;99.90
16315;DHT22;8266;52.150;4.768;2023-11-21T04:33:24;12.10;99.90
16315;DHT22;8266;52.150;4.768;2023-11-21T04:35:51;12.10;99.90
16315;DHT22;8266;52.150;4.768;2023-11-21T04:38:18;12.10;99.90
16315;DHT22;8266;52.150;4.768;2023-11-21T04:40:47;12.10;99.90
16315;DHT22;8266;52.150;4.768;2023-11-21T04:43:14;12.10;99.90
16315;DHT22;8266;52.150;4.768;2023-11-21T04:45:41;12.10;99.90
16315;DHT22;8266;52.150;4.768;2023-11-21T04:48:08;12.10;99.90
16315;DHT22;8266;52.150;4.768;2023-11-21T04:50:35;12.10;99.90
16315;DHT22;8266;52.150;4.768;2023-11-21T04:53:02;12.10;99.90
16315;DHT22;8266;52.150;4.768;2023-11-21T04:55:31;12.10;99.90
16315;DHT22;8266;52.150;4.768;2023-11-21T04:57:59;12.10;99.90
16315;DHT22;8266;52.150;4.768;2023-11-21T05:00:26;12.10;99.90
16315;DHT22;8266;52.150;4.768;2023-11-21T05:02:53;12.10;99.90
16315;DHT22;8266;52.150;4.768;2023-11-21T05:05:20;12.10;99.90
16315;DHT22;8266;52.150;4.768;2023-11-21T05:07:48;12.10;99.90
16315;DHT22;8266;52.150;4.768;2023-11-21T05:10:15;12.00;99.90
16315;DHT22;8266;52.150;4.768;2023-11-21T05:12:42;12.00;99.90
16315;DHT22;8266;52.150;4.768;2023-11-21T05:15:14;12.00;99.90
16315;DHT22;8266;52.150;4.768;2023-11-21T05:17:42;12.00;99.90
16315;DHT22;8266;52.150;4.768;2023-11-21T05:20:10;12.00;99.90
16315;DHT22;8266;52.150;4.768;2023-11-21T05:22:39;12.00;99.90
16315;DHT22;8266;52.150;4.768;2023-11-21T05:25:08;12.00;99.90
16315;DHT22;8266;52.150;4.768;2023-11-21T05:27:35;12.00;99.90
16315;DHT22;8266;52.150;4.768;2023-11-21T05:30:03;11.90;99.90
16315;DHT22;8266;52.150;4.768;2023-11-21T05:32:32;11.90;99.90
16315;DHT22;8266;52.150;4.768;2023-11-21T05:35:00;11.90;99.90
16315;DHT22;8266;52.150;4.768;2023-11-21T05:37:27;11.90;99.90
16315;DHT22;8266;52.150;4.768;2023-11-21T05:39:54;11.90;99.90
16315;DHT22;8266;52.150;4.768;2023-11-21T05:42:22;11.90;99.90
16315;DHT22;8266;52.150;4.768;2023-11-21T05:44:49;11.80;99.90
16315;DHT22;8266;52.150;4.768;2023-11-21T05:47:16;11.80;99.90
16315;DHT22;8266;52.150;4.768;2023-11-21T05:49:45;11.90;99.90
16315;DHT22;8266;52.150;4.768;2023-11-21T05:52:15;11.80;99.90
16315;DHT22;8266;52.150;4.768;2023-11-21T05:54:42;11.90;99.90
16315;DHT22;8266;52.150;4.768;2023-11-21T05:57:10;11.90;99.90
16315;DHT22;8266;52.150;4.768;2023-11-21T05:59:37;11.90;99.90
16315;DHT22;8266;52.150;4.768;2023-11-21T06:02:04;11.90;99.90
16315;DHT22;8266;52.150;4.768;2023-11-21T06:04:31;11.90;99.90
16315;DHT22;8266;52.150;4.768;2023-11-21T06:07:00;12.00;99.90
16315;DHT22;8266;52.150;4.768;2023-11-21T06:09:27;12.00;99.90
16315;DHT22;8266;52.150;4.768;2023-11-21T06:11:54;12.00;99.90
16315;DHT22;8266;52.150;4.768;2023-11-21T06:14:21;12.00;99.90
16315;DHT22;8266;52.150;4.768;2023-11-21T06:16:48;12.10;99.90
16315;DHT22;8266;52.150;4.768;2023-11-21T06:19:17;12.10;99.90
16315;DHT22;8266;52.150;4.768;2023-11-21T06:21:45;12.10;99.90
16315;DHT22;8266;52.150;4.768;2023-11-21T06:24:15;12.10;99.90
16315;DHT22;8266;52.150;4.768;2023-11-21T06:26:42;12.10;99.90
16315;DHT22;8266;52.150;4.768;2023-11-21T06:29:11;12.20;99.90
16315;DHT22;8266;52.150;4.768;2023-11-21T06:31:38;12.20;99.90
16315;DHT22;8266;52.150;4.768;2023-11-21T06:34:06;12.20;99.90
16315;DHT22;8266;52.150;4.768;2023-11-21T06:36:34;12.20;99.90
16315;DHT22;8266;52.150;4.768;2023-11-21T06:39:02;12.20;99.90
16315;DHT22;8266;52.150;4.768;2023-11-21T06:41:33;12.20;99.90
16315;DHT22;8266;52.150;4.768;2023-11-21T06:44:00;12.20;99.90
16315;DHT22;8266;52.150;4.768;2023-11-21T06:46:28;12.20;99.90
16315;DHT22;8266;52.150;4.768;2023-11-21T06:48:55;12.20;99.90
16315;DHT22;8266;52.150;4.768;2023-11-21T06:51:22;12.20;99.90
16315;DHT22;8266;52.150;4.768;2023-11-21T06:53:49;12.20;99.90
16315;DHT22;8266;52.150;4.768;2023-11-21T06:56:16;12.30;99.90
16315;DHT22;8266;52.150;4.768;2023-11-21T06:58:45;12.30;99.90
16315;DHT22;8266;52.150;4.768;2023-11-21T07:01:13;12.30;99.90
16315;DHT22;8266;52.150;4.768;2023-11-21T07:03:40;12.40;99.90
16315;DHT22;8266;52.150;4.768;2023-11-21T07:06:08;12.40;99.90
16315;DHT22;8266;52.150;4.768;2023-11-21T07:08:35;12.40;99.90
16315;DHT22;8266;52.150;4.768;2023-11-21T07:11:02;12.50;99.90
16315;DHT22;8266;52.150;4.768;2023-11-21T07:13:30;12.50;99.90
16315;DHT22;8266;52.150;4.768;2023-11-21T07:15:59;12.50;99.90
16315;DHT22;8266;52.150;4.768;2023-11-21T07:18:26;12.60;99.90
16315;DHT22;8266;52.150;4.768;2023-11-21T07:20:53;12.60;99.90
16315;DHT22;8266;52.150;4.768;2023-11-21T07:23:20;12.60;99.90
16315;DHT22;8266;52.150;4.768;2023-11-21T07:25:48;12.60;99.90
16315;DHT22;8266;52.150;4.768;2023-11-21T07:28:15;12.60;99.90
16315;DHT22;8266;52.150;4.768;2023-11-21T07:30:42;12.60;99.90
16315;DHT22;8266;52.150;4.768;2023-11-21T07:33:11;12.60;99.90
16315;DHT22;8266;52.150;4.768;2023-11-21T07:35:38;12.70;99.90
16315;DHT22;8266;52.150;4.768;2023-11-21T07:38:06;12.70;99.90
16315;DHT22;8266;52.150;4.768;2023-11-21T07:40:33;12.70;99.90
16315;DHT22;8266;52.150;4.768;2023-11-21T07:43:00;12.70;99.90
16315;DHT22;8266;52.150;4.768;2023-11-21T07:45:27;12.80;99.90
16315;DHT22;8266;52.150;4.768;2023-11-21T07:47:57;12.80;99.90
16315;DHT22;8266;52.150;4.768;2023-11-21T07:50:25;12.80;99.90
16315;DHT22;8266;52.150;4.768;2023-11-21T07:52:53;12.90;99.90
16315;DHT22;8266;52.150;4.768;2023-11-21T07:55:20;12.80;99.90
16315;DHT22;8266;52.150;4.768;2023-11-21T07:57:48;12.90;99.90
16315;DHT22;8266;52.150;4.768;2023-11-21T08:00:16;12.90;99.90
16315;DHT22;8266;52.150;4.768;2023-11-21T08:02:43;12.90;99.90
16315;DHT22;8266;52.150;4.768;2023-11-21T08:05:12;12.90;99.90
16315;DHT22;8266;52.150;4.768;2023-11-21T08:07:41;12.90;99.90
16315;DHT22;8266;52.150;4.768;2023-11-21T08:10:09;13.00;99.90
16315;DHT22;8266;52.150;4.768;2023-11-21T08:12:37;12.90;99.90
16315;DHT22;8266;52.150;4.768;2023-11-21T08:15:06;13.00;99.90
16315;DHT22;8266;52.150;4.768;2023-11-21T08:17:33;13.00;99.90
16315;DHT22;8266;52.150;4.768;2023-11-21T08:20:00;13.00;99.90
16315;DHT22;8266;52.150;4.768;2023-11-21T08:22:29;13.10;99.90
16315;DHT22;8266;52.150;4.768;2023-11-21T08:24:57;13.10;99.90
16315;DHT22;8266;52.150;4.768;2023-11-21T08:27:24;13.10;99.90
16315;DHT22;8266;52.150;4.768;2023-11-21T08:29:51;13.10;99.90
16315;DHT22;8266;52.150;4.768;2023-11-21T08:32:18;13.10;99.90
16315;DHT22;8266;52.150;4.768;2023-11-21T08:34:45;13.10;99.90
16315;DHT22;8266;52.150;4.768;2023-11-21T08:37:16;13.10;99.90
16315;DHT22;8266;52.150;4.768;2023-11-21T08:39:44;13.10;99.90
16315;DHT22;8266;52.150;4.768;2023-11-21T08:42:12;13.10;99.90
16315;DHT22;8266;52.150;4.768;2023-11-21T08:44:39;13.10;99.90
16315;DHT22;8266;52.150;4.768;2023-11-21T08:47:07;13.10;99.90
16315;DHT22;8266;52.150;4.768;2023-11-21T08:49:34;13.10;99.90
16315;DHT22;8266;52.150;4.768;2023-11-21T08:52:01;13.10;99.90
16315;DHT22;8266;52.150;4.768;2023-11-21T08:54:28;13.10;99.90
16315;DHT22;8266;52.150;4.768;2023-11-21T08:56:55;13.10;99.90
16315;DHT22;8266;52.150;4.768;2023-11-21T08:59:25;13.10;99.90
16315;DHT22;8266;52.150;4.768;2023-11-21T09:01:52;13.10;99.90
16315;DHT22;8266;52.150;4.768;2023-11-21T09:04:19;13.10;99.90
16315;DHT22;8266;52.150;4.768;2023-11-21T09:06:46;13.10;99.90
16315;DHT22;8266;52.150;4.768;2023-11-21T09:09:14;13.10;99.90
16315;DHT22;8266;52.150;4.768;2023-11-21T09:11:44;13.20;99.90
16315;DHT22;8266;52.150;4.768;2023-11-21T09:14:12;13.20;99.90
16315;DHT22;8266;52.150;4.768;2023-11-21T09:16:43;13.20;99.90
16315;DHT22;8266;52.150;4.768;2023-11-21T09:19:10;13.20;99.90
16315;DHT22;8266;52.150;4.768;2023-11-21T09:21:37;13.20;99.90
16315;DHT22;8266;52.150;4.768;2023-11-21T09:24:05;13.20;99.90
16315;DHT22;8266;52.150;4.768;2023-11-21T09:26:34;13.20;99.90
16315;DHT22;8266;52.150;4.768;2023-11-21T09:29:01;13.20;99.90
16315;DHT22;8266;52.150;4.768;2023-11-21T09:31:29;13.20;99.90
16315;DHT22;8266;52.150;4.768;2023-11-21T09:33:58;13.20;99.90
16315;DHT22;8266;52.150;4.768;2023-11-21T09:36:25;13.20;99.90
16315;DHT22;8266;52.150;4.768;2023-11-21T09:38:55;13.20;99.90
16315;DHT22;8266;52.150;4.768;2023-11-21T09:41:29;13.20;99.90
16315;DHT22;8266;52.150;4.768;2023-11-21T09:44:02;13.20;99.90
16315;DHT22;8266;52.150;4.768;2023-11-21T09:46:33;13.20;99.90
16315;DHT22;8266;52.150;4.768;2023-11-21T09:49:02;13.20;99.90
16315;DHT22;8266;52.150;4.768;2023-11-21T09:51:34;13.20;99.90
16315;DHT22;8266;52.150;4.768;2023-11-21T09:54:05;13.10;99.90
16315;DHT22;8266;52.150;4.768;2023-11-21T09:56:35;13.20;99.90
16315;DHT22;8266;52.150;4.768;2023-11-21T09:59:02;13.20;99.90
16315;DHT22;8266;52.150;4.768;2023-11-21T10:01:33;13.20;99.90
16315;DHT22;8266;52.150;4.768;2023-11-21T10:04:05;13.20;99.90
16315;DHT22;8266;52.150;4.768;2023-11-21T10:06:38;13.20;99.90
16315;DHT22;8266;52.150;4.768;2023-11-21T10:09:06;13.20;99.90
16315;DHT22;8266;52.150;4.768;2023-11-21T10:11:40;13.20;99.90
16315;DHT22;8266;52.150;4.768;2023-11-21T10:14:08;13.20;99.90
16315;DHT22;8266;52.150;4.768;2023-11-21T10:16:38;13.20;99.90
16315;DHT22;8266;52.150;4.768;2023-11-21T10:19:09;13.20;99.90
16315;DHT22;8266;52.150;4.768;2023-11-21T10:21:39;13.20;99.90
16315;DHT22;8266;52.150;4.768;2023-11-21T10:24:07;13.20;99.90
16315;DHT22;8266;52.150;4.768;2023-11-21T10:26:44;13.20;99.90
16315;DHT22;8266;52.150;4.768;2023-11-21T10:29:31;13.20;99.90
16315;DHT22;8266;52.150;4.768;2023-11-21T10:32:02;13.20;99.90
16315;DHT22;8266;52.150;4.768;2023-11-21T10:34:33;13.20;99.90
16315;DHT22;8266;52.150;4.768;2023-11-21T10:37:11;13.20;99.90
16315;DHT22;8266;52.150;4.768;2023-11-21T10:39:39;13.20;99.90
16315;DHT22;8266;52.150;4.768;2023-11-21T10:42:08;13.20;99.90
16315;DHT22;8266;52.150;4.768;2023-11-21T10:44:36;13.20;99.90
16315;DHT22;8266;52.150;4.768;2023-11-21T10:47:03;13.20;99.90
16315;DHT22;8266;52.150;4.768;2023-11-21T10:49:32;13.20;99.90
16315;DHT22;8266;52.150;4.768;2023-11-21T10:52:00;13.30;99.90
16315;DHT22;8266;52.150;4.768;2023-11-21T10:54:27;13.30;99.90
16315;DHT22;8266;52.150;4.768;2023-11-21T10:56:57;13.30;99.90
16315;DHT22;8266;52.150;4.768;2023-11-21T10:59:27;13.30;99.90
16315;DHT22;8266;52.150;4.768;2023-11-21T11:01:54;13.40;99.90
16315;DHT22;8266;52.150;4.768;2023-11-21T11:04:25;13.40;99.90
16315;DHT22;8266;52.150;4.768;2023-11-21T11:06:58;13.40;99.90
16315;DHT22;8266;52.150;4.768;2023-11-21T11:09:31;13.40;99.90
16315;DHT22;8266;52.150;4.768;2023-11-21T11:11:59;13.40;99.90
16315;DHT22;8266;52.150;4.768;2023-11-21T11:14:27;13.40;99.90
16315;DHT22;8266;52.150;4.768;2023-11-21T11:16:54;13.30;99.90
16315;DHT22;8266;52.150;4.768;2023-11-21T11:19:22;13.30;99.90
16315;DHT22;8266;52.150;4.768;2023-11-21T11:21:56;13.30;99.90
16315;DHT22;8266;52.150;4.768;2023-11-21T11:27:37;13.30;99.90
16315;DHT22;8266;52.150;4.768;2023-11-21T11:30:14;13.40;99.90
16315;DHT22;8266;52.150;4.768;2023-11-21T11:32:50;13.40;99.90
16315;DHT22;8266;52.150;4.768;2023-11-21T11:35:29;13.40;99.90
16315;DHT22;8266;52.150;4.768;2023-11-21T11:38:01;13.40;99.90
16315;DHT22;8266;52.150;4.768;2023-11-21T11:40:39;13.40;99.90
16315;DHT22;8266;52.150;4.768;2023-11-21T11:43:06;13.40;99.90
16315;DHT22;8266;52.150;4.768;2023-11-21T11:45:34;13.40;99.90
16315;DHT22;8266;52.150;4.768;2023-11-21T11:48:06;13.40;99.90
16315;DHT22;8266;52.150;4.768;2023-11-21T11:50:34;13.40;99.90
16315;DHT22;8266;52.150;4.768;2023-11-21T11:53:14;13.30;99.90
16315;DHT22;8266;52.150;4.768;2023-11-21T11:55:41;13.30;99.90
16315;DHT22;8266;52.150;4.768;2023-11-21T11:58:08;13.30;99.90
16315;DHT22;8266;52.150;4.768;2023-11-21T12:00:36;13.20;99.90
16315;DHT22;8266;52.150;4.768;2023-11-21T12:03:07;13.20;99.90
16315;DHT22;8266;52.150;4.768;2023-11-21T12:05:36;13.20;99.90
16315;DHT22;8266;52.150;4.768;2023-11-21T12:08:05;13.20;99.90
16315;DHT22;8266;52.150;4.768;2023-11-21T12:10:36;13.10;99.90
16315;DHT22;8266;52.150;4.768;2023-11-21T12:13:05;13.10;99.90
16315;DHT22;8266;52.150;4.768;2023-11-21T12:15:33;13.10;99.90
16315;DHT22;8266;52.150;4.768;2023-11-21T12:18:01;13.10;99.90
16315;DHT22;8266;52.150;4.768;2023-11-21T12:20:28;13.10;99.90
16315;DHT22;8266;52.150;4.768;2023-11-21T12:22:57;13.10;99.90
16315;DHT22;8266;52.150;4.768;2023-11-21T12:25:26;13.10;99.90
16315;DHT22;8266;52.150;4.768;2023-11-21T12:27:56;13.10;99.90
16315;DHT22;8266;52.150;4.768;2023-11-21T12:30:26;13.10;99.90
16315;DHT22;8266;52.150;4.768;2023-11-21T12:32:57;13.20;99.90
16315;DHT22;8266;52.150;4.768;2023-11-21T12:35:26;13.20;99.90
16315;DHT22;8266;52.150;4.768;2023-11-21T12:37:54;13.20;99.90
16315;DHT22;8266;52.150;4.768;2023-11-21T12:40:23;13.20;99.90
16315;DHT22;8266;52.150;4.768;2023-11-21T12:42:52;13.20;99.90
16315;DHT22;8266;52.150;4.768;2023-11-21T12:45:23;13.20;99.90
16315;DHT22;8266;52.150;4.768;2023-11-21T12:47:53;13.30;99.90
16315;DHT22;8266;52.150;4.768;2023-11-21T12:50:23;13.30;99.90
16315;DHT22;8266;52.150;4.768;2023-11-21T12:52:58;13.30;99.90
16315;DHT22;8266;52.150;4.768;2023-11-21T12:55:25;13.30;99.90
16315;DHT22;8266;52.150;4.768;2023-11-21T12:57:54;13.30;99.90
16315;DHT22;8266;52.150;4.768;2023-11-21T13:00:32;13.30;99.90
16315;DHT22;8266;52.150;4.768;2023-11-21T13:03:03;13.30;99.90
16315;DHT22;8266;52.150;4.768;2023-11-21T13:05:32;13.30;99.90
16315;DHT22;8266;52.150;4.768;2023-11-21T13:08:02;13.30;99.90
16315;DHT22;8266;52.150;4.768;2023-11-21T13:10:33;13.30;99.90
16315;DHT22;8266;52.150;4.768;2023-11-21T13:13:02;13.30;99.90
16315;DHT22;8266;52.150;4.768;2023-11-21T13:15:38;13.30;99.90
16315;DHT22;8266;52.150;4.768;2023-11-21T13:18:06;13.30;99.90
16315;DHT22;8266;52.150;4.768;2023-11-21T13:20:36;13.30;99.90
16315;DHT22;8266;52.150;4.768;2023-11-21T13:23:08;13.30;99.90
16315;DHT22;8266;52.150;4.768;2023-11-21T13:25:37;13.30;99.90
16315;DHT22;8266;52.150;4.768;2023-11-21T13:28:07;13.30;99.90
16315;DHT22;8266;52.150;4.768;2023-11-21T13:30:36;13.30;99.90
16315;DHT22;8266;52.150;4.768;2023-11-21T13:33:06;13.30;99.90
16315;DHT22;8266;52.150;4.768;2023-11-21T13:35:36;13.20;99.90
16315;DHT22;8266;52.150;4.768;2023-11-21T13:38:08;13.20;99.90
16315;DHT22;8266;52.150;4.768;2023-11-21T13:40:36;13.20;99.90
16315;DHT22;8266;52.150;4.768;2023-11-21T13:43:08;13.20;99.90
16315;DHT22;8266;52.150;4.768;2023-11-21T13:45:37;13.20;99.90
16315;DHT22;8266;52.150;4.768;2023-11-21T13:48:06;13.20;99.90
16315;DHT22;8266;52.150;4.768;2023-11-21T13:50:36;13.20;99.90
16315;DHT22;8266;52.150;4.768;2023-11-21T13:53:03;13.10;99.90
16315;DHT22;8266;52.150;4.768;2023-11-21T13:55:36;13.10;99.90
16315;DHT22;8266;52.150;4.768;2023-11-21T13:58:05;13.10;99.90
16315;DHT22;8266;52.150;4.768;2023-11-21T14:00:37;13.10;99.90
16315;DHT22;8266;52.150;4.768;2023-11-21T14:03:10;13.10;99.90
16315;DHT22;8266;52.150;4.768;2023-11-21T14:05:44;13.10;99.90
16315;DHT22;8266;52.150;4.768;2023-11-21T14:08:13;13.00;99.90
16315;DHT22;8266;52.150;4.768;2023-11-21T14:10:42;13.10;99.90
16315;DHT22;8266;52.150;4.768;2023-11-21T14:13:13;13.10;99.90
16315;DHT22;8266;52.150;4.768;2023-11-21T14:15:43;13.00;99.90
16315;DHT22;8266;52.150;4.768;2023-11-21T14:18:16;13.10;99.90
16315;DHT22;8266;52.150;4.768;2023-11-21T14:20:51;13.00;99.90
16315;DHT22;8266;52.150;4.768;2023-11-21T14:23:20;13.00;99.90
16315;DHT22;8266;52.150;4.768;2023-11-21T14:25:49;12.90;99.90
16315;DHT22;8266;52.150;4.768;2023-11-21T14:28:17;12.90;99.90
16315;DHT22;8266;52.150;4.768;2023-11-21T14:30:46;12.90;99.90
16315;DHT22;8266;52.150;4.768;2023-11-21T14:33:13;12.90;99.90
16315;DHT22;8266;52.150;4.768;2023-11-21T14:35:42;12.90;99.90
16315;DHT22;8266;52.150;4.768;2023-11-21T14:38:09;12.90;99.90
16315;DHT22;8266;52.150;4.768;2023-11-21T14:40:36;12.90;99.90
16315;DHT22;8266;52.150;4.768;2023-11-21T14:43:04;12.80;99.90
16315;DHT22;8266;52.150;4.768;2023-11-21T14:45:32;12.80;99.90
16315;DHT22;8266;52.150;4.768;2023-11-21T14:48:01;12.80;99.90
16315;DHT22;8266;52.150;4.768;2023-11-21T14:50:35;12.80;99.90
16315;DHT22;8266;52.150;4.768;2023-11-21T14:53:13;12.70;99.90
16315;DHT22;8266;52.150;4.768;2023-11-21T14:55:40;12.70;99.90
16315;DHT22;8266;52.150;4.768;2023-11-21T14:58:22;12.70;99.90
16315;DHT22;8266;52.150;4.768;2023-11-21T15:00:56;12.70;99.90
16315;DHT22;8266;52.150;4.768;2023-11-21T15:03:25;12.70;99.90
16315;DHT22;8266;52.150;4.768;2023-11-21T15:06:15;12.70;99.90
16315;DHT22;8266;52.150;4.768;2023-11-21T15:08:48;12.60;99.90
16315;DHT22;8266;52.150;4.768;2023-11-21T15:11:21;12.60;99.90
16315;DHT22;8266;52.150;4.768;2023-11-21T15:13:53;12.60;99.90
16315;DHT22;8266;52.150;4.768;2023-11-21T15:16:20;12.60;99.90
16315;DHT22;8266;52.150;4.768;2023-11-21T15:18:48;12.60;99.90
16315;DHT22;8266;52.150;4.768;2023-11-21T15:21:15;12.50;99.90
16315;DHT22;8266;52.150;4.768;2023-11-21T15:23:42;12.50;99.90
16315;DHT22;8266;52.150;4.768;2023-11-21T15:26:10;12.50;99.90
16315;DHT22;8266;52.150;4.768;2023-11-21T15:28:38;12.50;99.90
16315;DHT22;8266;52.150;4.768;2023-11-21T15:31:05;12.50;99.90
16315;DHT22;8266;52.150;4.768;2023-11-21T15:33:33;12.40;99.90
16315;DHT22;8266;52.150;4.768;2023-11-21T15:36:04;12.40;99.90
16315;DHT22;8266;52.150;4.768;2023-11-21T15:38:35;12.40;99.90
16315;DHT22;8266;52.150;4.768;2023-11-21T15:41:02;12.30;99.90
16315;DHT22;8266;52.150;4.768;2023-11-21T15:43:31;12.30;99.90
16315;DHT22;8266;52.150;4.768;2023-11-21T15:46:01;12.30;99.90
16315;DHT22;8266;52.150;4.768;2023-11-21T15:48:33;12.30;99.90
16315;DHT22;8266;52.150;4.768;2023-11-21T15:51:01;12.30;99.90
16315;DHT22;8266;52.150;4.768;2023-11-21T15:53:31;12.20;99.90
16315;DHT22;8266;52.150;4.768;2023-11-21T15:55:59;12.20;99.90
16315;DHT22;8266;52.150;4.768;2023-11-21T15:58:26;12.20;99.90